Terminal Aerodrome Forecast
Issued by NWS

Home | Current Version | Previous Version | Text Only | Print | Product List | Glossary On
Versions: 1 2 3 4 5 6 7 8 9 10 11 12 13 14 15 16 17 18 19 20 21
857
FTUS43 KDTX 181720
TAFDET
TAF
KDET 181720Z 1818/1918 VRB04KT 2SM RA BR BKN003 OVC012
      TEMPO 1818/1821 1SM +SHRA BR VV002
     FM182100 36012KT 4SM -SHRA BR BKN006 OVC012
     FM190000 35020G30KT P6SM -SHRA BKN008 OVC018
     FM190300 33022G33KT P6SM BKN018 OVC025
     FM190600 31018G26KT P6SM BKN025 OVC035
     FM190900 29016G24KT P6SM BKN035
     FM191400 27014G22KT P6SM BKN040=

USA.gov is the U.S. government's official web portal to all federal, state and local government web resources and services.